Time;durP1;ratioP1;P1;durP2;ratioP2;P2;SDS_P1;SDS_P2;PMS_P1;PMS_P2;Temp;Humidity;BMP_temperature;BMP_pressure;BME280_temperature;BME280_humidity;BME280_pressure;Samples;Min_cycle;Max_cycle;Signal;HPM_P1;HPM_P2
2023/08/18 00:03:59;;;;;;;5.27;4.00;;;22.50;99.90;;;;;;20999355;28;20795;-70
2023/08/18 00:14:00;;;;;;;4.33;3.80;;;22.40;99.90;;;;;;20998781;28;20314;-72
2023/08/18 00:24:02;;;;;;;5.57;4.00;;;22.30;99.90;;;;;;20998618;28;20239;-73
2023/08/18 00:34:05;;;;;;;4.93;4.10;;;22.20;99.90;;;;;;20997959;28;20214;-68
2023/08/18 00:44:06;;;;;;;4.40;4.00;;;22.30;99.90;;;;;;20996442;28;20237;-68
2023/08/18 00:54:09;;;;;;;5.90;4.13;;;22.10;99.90;;;;;;20996217;28;20207;-69
2023/08/18 01:04:12;;;;;;;5.50;4.10;;;22.20;99.90;;;;;;20995281;28;20234;-71
2023/08/18 01:14:32;;;;;;;6.37;3.77;;;22.00;99.90;;;;;;20995783;28;20741;-68
2023/08/18 01:24:34;;;;;;;5.73;3.97;;;21.70;99.90;;;;;;21010354;28;20234;-68
2023/08/18 01:34:40;;;;;;;7.53;5.00;;;21.60;99.90;;;;;;20994224;28;20229;-68
2023/08/18 01:44:42;;;;;;;6.20;4.63;;;21.50;99.90;;;;;;20994247;28;20759;-71
2023/08/18 01:54:44;;;;;;;7.20;4.20;;;21.40;99.90;;;;;;20996508;28;20576;-69
2023/08/18 02:04:46;;;;;;;5.23;4.33;;;21.30;99.90;;;;;;21008633;28;20317;-69
2023/08/18 02:14:47;;;;;;;7.33;4.50;;;21.20;99.90;;;;;;21008419;28;20620;-68
2023/08/18 02:24:49;;;;;;;10.60;5.17;;;21.10;99.90;;;;;;21016504;28;20237;-69
2023/08/18 02:34:51;;;;;;;7.53;5.17;;;21.00;99.90;;;;;;21018895;28;20233;-70
2023/08/18 02:44:53;;;;;;;5.80;4.43;;;20.90;99.90;;;;;;21006131;28;20235;-68
2023/08/18 02:54:54;;;;;;;5.47;4.77;;;20.90;99.90;;;;;;21007926;28;20300;-71
2023/08/18 03:04:56;;;;;;;8.23;4.60;;;21.00;99.90;;;;;;21011899;28;20330;-76
2023/08/18 03:14:58;;;;;;;6.80;4.77;;;20.90;99.90;;;;;;21004870;28;20592;-76
2023/08/18 03:25:00;;;;;;;7.07;4.80;;;20.80;99.90;;;;;;21002914;28;20236;-68
2023/08/18 03:35:02;;;;;;;6.10;4.77;;;20.70;99.90;;;;;;21002027;28;20214;-68
2023/08/18 03:45:05;;;;;;;6.00;3.97;;;20.60;99.90;;;;;;21001262;28;20239;-68
2023/08/18 03:55:09;;;;;;;8.33;4.63;;;20.70;99.90;;;;;;21000173;28;20298;-68
2023/08/18 04:05:11;;;;;;;7.67;4.13;;;20.80;99.90;;;;;;21017117;28;20242;-69
2023/08/18 04:15:14;;;;;;;6.10;4.20;;;20.70;99.90;;;;;;20999065;28;20211;-78
2023/08/18 04:25:16;;;;;;;7.10;4.53;;;20.70;99.90;;;;;;20997045;28;20690;-69
2023/08/18 04:35:17;;;;;;;4.63;3.87;;;20.60;99.90;;;;;;20997090;28;20211;-71
2023/08/18 04:45:19;;;;;;;8.70;4.60;;;20.60;99.90;;;;;;20997015;28;20751;-68
2023/08/18 04:55:21;;;;;;;6.73;4.10;;;20.60;99.90;;;;;;20996353;28;20689;-71
2023/08/18 05:05:23;;;;;;;4.83;4.20;;;20.60;99.90;;;;;;20995357;28;20255;-70
2023/08/18 05:15:24;;;;;;;5.80;3.97;;;20.60;99.90;;;;;;20995428;28;20259;-68
2023/08/18 05:25:26;;;;;;;7.53;4.30;;;20.70;99.90;;;;;;20994726;28;20231;-70
2023/08/18 05:35:28;;;;;;;6.07;4.20;;;20.70;99.90;;;;;;21023337;28;20246;-67
2023/08/18 05:45:30;;;;;;;7.40;4.50;;;20.80;99.90;;;;;;21094901;28;20237;-67
2023/08/18 05:55:32;;;;;;;8.30;4.63;;;20.80;99.90;;;;;;21094487;28;20198;-69
2023/08/18 06:05:34;;;;;;;6.23;4.73;;;21.00;99.90;;;;;;21095270;28;20591;-71
2023/08/18 06:15:37;;;;;;;7.13;4.50;;;21.20;99.90;;;;;;21091350;28;20209;-73
2023/08/18 06:25:39;;;;;;;4.43;4.03;;;21.30;99.90;;;;;;21091102;28;20230;-66
2023/08/18 06:35:40;;;;;;;5.57;3.80;;;21.60;99.90;;;;;;21061429;28;20208;-69
2023/08/18 06:45:42;;;;;;;6.60;4.00;;;21.80;99.90;;;;;;21070234;28;20578;-68
2023/08/18 06:55:44;;;;;;;6.37;3.80;;;22.10;99.90;;;;;;21088573;28;20263;-68
2023/08/18 07:06:03;;;;;;;4.97;4.13;;;22.30;99.90;;;;;;21072276;28;20284;-71
2023/08/18 07:16:05;;;;;;;5.43;3.47;;;22.50;99.90;;;;;;21087694;28;20261;-73
2023/08/18 07:26:06;;;;;;;10.47;3.63;;;22.70;99.90;;;;;;21085911;28;20234;-70
2023/08/18 07:36:08;;;;;;;7.73;4.63;;;22.90;99.90;;;;;;21084909;28;20657;-68
2023/08/18 07:46:10;;;;;;;3.97;3.50;;;23.10;99.90;;;;;;21084877;28;20230;-71
2023/08/18 07:56:12;;;;;;;6.10;3.53;;;23.20;99.90;;;;;;21083638;28;20658;-75
2023/08/18 08:06:14;;;;;;;7.33;3.00;;;23.50;99.90;;;;;;21070519;28;20245;-71
2023/08/18 08:16:16;;;;;;;4.80;2.80;;;23.70;99.90;;;;;;21026799;28;20243;-69
2023/08/18 08:26:18;;;;;;;7.43;3.17;;;23.90;99.80;;;;;;20980557;28;20235;-65
2023/08/18 08:36:19;;;;;;;5.47;3.33;;;24.10;99.30;;;;;;20996506;28;20212;-66
2023/08/18 08:46:22;;;;;;;5.77;3.70;;;24.30;98.60;;;;;;20997401;28;20203;-66
2023/08/18 08:56:26;;;;;;;9.00;2.80;;;24.40;97.90;;;;;;20995687;28;20211;-65
2023/08/18 09:06:28;;;;;;;3.50;2.83;;;24.60;97.10;;;;;;20994273;28;20303;-65
2023/08/18 09:16:31;;;;;;;6.43;3.80;;;24.80;96.70;;;;;;20995052;28;20212;-66
2023/08/18 09:26:33;;;;;;;5.30;2.60;;;25.00;96.00;;;;;;20994600;28;20713;-69
2023/08/18 09:36:35;;;;;;;3.80;2.40;;;25.20;95.50;;;;;;20994100;28;20713;-65
2023/08/18 09:46:38;;;;;;;4.13;2.60;;;25.40;94.70;;;;;;20993946;28;20207;-68
2023/08/18 09:56:41;;;;;;;2.20;2.03;;;25.60;94.10;;;;;;20993602;28;20210;-67
2023/08/18 10:06:44;;;;;;;2.60;2.10;;;25.80;93.30;;;;;;20992928;28;20245;-66
2023/08/18 10:16:48;;;;;;;3.07;2.23;;;26.10;92.50;;;;;;20997135;28;20295;-66
2023/08/18 10:26:50;;;;;;;4.63;2.00;;;26.20;91.60;;;;;;21007270;28;20636;-65
2023/08/18 10:36:58;;;;;;;2.95;2.03;;;26.40;90.30;;;;;;21006565;28;20674;-69
2023/08/18 10:47:31;;;;;;;5.07;1.80;;;26.60;88.20;;;;;;21005560;28;20215;-68
2023/08/18 10:57:37;;;;;;;2.85;1.77;;;26.80;86.00;;;;;;21028596;28;20233;-70
2023/08/18 11:07:39;;;;;;;7.20;2.28;;;26.90;83.20;;;;;;21013249;28;20739;-72
2023/08/18 11:17:41;;;;;;;3.38;2.25;;;27.00;81.20;;;;;;21019706;28;20243;-72
2023/08/18 11:27:44;;;;;;;3.42;1.98;;;27.20;78.00;;;;;;21003288;28;20215;-75
2023/08/18 11:37:49;;;;;;;4.13;1.88;;;27.30;78.00;;;;;;21001068;28;20591;-77
2023/08/18 11:48:00;;;;;;;5.88;1.90;;;27.40;75.00;;;;;;20999928;28;20303;-66
2023/08/18 11:58:14;;;;;;;4.28;1.90;;;27.60;74.10;;;;;;20997825;28;20276;-70
2023/08/18 12:08:17;;;;;;;2.38;1.75;;;27.90;73.60;;;;;;20997869;28;20724;-69
2023/08/18 12:18:19;;;;;;;5.43;2.03;;;28.30;72.70;;;;;;21013126;28;20234;-69
2023/08/18 12:28:21;;;;;;;6.70;2.60;;;28.50;70.60;;;;;;21009699;28;20229;-68
2023/08/18 12:38:23;;;;;;;6.63;2.05;;;28.80;68.90;;;;;;20996265;28;20239;-68
2023/08/18 12:48:24;;;;;;;3.80;2.00;;;28.90;67.50;;;;;;20996485;28;20235;-68
2023/08/18 12:58:26;;;;;;;6.65;1.83;;;29.00;66.80;;;;;;20996438;28;20265;-68
2023/08/18 13:08:28;;;;;;;4.03;2.00;;;29.00;67.00;;;;;;20995309;28;20641;-70
2023/08/18 13:18:29;;;;;;;4.43;1.85;;;29.10;66.90;;;;;;20995696;28;20325;-70
2023/08/18 13:28:32;;;;;;;4.88;2.00;;;29.20;66.30;;;;;;20995395;28;20202;-69
2023/08/18 13:38:38;;;;;;;3.30;1.83;;;29.30;65.80;;;;;;20994497;28;20326;-76
2023/08/18 13:48:40;;;;;;;2.33;1.90;;;29.40;65.20;;;;;;20995376;28;20301;-75
2023/08/18 13:58:42;;;;;;;2.65;1.60;;;29.60;64.20;;;;;;21010327;28;20574;-73
2023/08/18 14:08:43;;;;;;;3.83;1.52;;;29.90;63.70;;;;;;21009481;28;20227;-78
2023/08/18 14:18:45;;;;;;;2.15;1.63;;;35.10;55.00;;;;;;20993597;28;20730;-78
2023/08/18 14:28:47;;;;;;;7.65;1.90;;;35.20;53.50;;;;;;21008723;28;20204;-70
2023/08/18 14:38:49;;;;;;;1.73;1.40;;;33.30;54.30;;;;;;21013516;28;20585;-69
2023/08/18 14:48:50;;;;;;;3.53;1.90;;;35.00;51.00;;;;;;21046343;28;20203;-69
2023/08/18 14:58:52;;;;;;;7.63;1.65;;;36.20;49.10;;;;;;21005507;28;20239;-70
2023/08/18 15:08:54;;;;;;;2.45;1.70;;;40.40;43.90;;;;;;21003549;28;20322;-68
2023/08/18 15:18:56;;;;;;;2.88;1.80;;;37.10;45.30;;;;;;21003969;28;20239;-70
2023/08/18 15:28:58;;;;;;;2.92;1.58;;;35.60;46.10;;;;;;21003507;28;20207;-69
2023/08/18 15:39:04;;;;;;;3.78;1.90;;;33.80;48.10;;;;;;21002326;28;20239;-69
2023/08/18 15:49:05;;;;;;;3.30;1.77;;;32.50;49.40;;;;;;21001642;28;20214;-72
2023/08/18 15:59:07;;;;;;;3.35;1.75;;;31.80;50.10;;;;;;21000446;28;20322;-68
2023/08/18 16:09:09;;;;;;;3.45;1.90;;;31.70;50.50;;;;;;20981742;28;20322;-69
2023/08/18 16:19:10;;;;;;;1.83;1.65;;;31.30;51.40;;;;;;21027299;28;20325;-68
2023/08/18 16:29:12;;;;;;;4.72;2.10;;;31.60;51.80;;;;;;21011166;28;20268;-69
2023/08/18 16:39:14;;;;;;;2.97;1.92;;;31.00;53.90;;;;;;20997858;28;20234;-67
2023/08/18 16:49:16;;;;;;;6.35;1.80;;;30.80;55.10;;;;;;20996822;28;20211;-68
2023/08/18 16:59:17;;;;;;;3.30;1.63;;;30.60;54.80;;;;;;20995365;28;20694;-68
2023/08/18 17:09:19;;;;;;;2.83;1.58;;;30.30;55.50;;;;;;20993110;28;20233;-67
2023/08/18 17:19:21;;;;;;;5.57;1.85;;;30.00;56.10;;;;;;20995536;28;20231;-68
2023/08/18 17:29:23;;;;;;;2.85;1.80;;;29.80;56.60;;;;;;21047458;28;20571;-67
2023/08/18 17:39:24;;;;;;;3.55;2.30;;;29.60;57.10;;;;;;21094879;28;20226;-69
2023/08/18 17:49:26;;;;;;;3.47;2.55;;;29.40;57.60;;;;;;21094353;28;20199;-70
2023/08/18 17:59:28;;;;;;;2.83;2.00;;;29.20;58.00;;;;;;21093990;28;20312;-69
2023/08/18 18:09:30;;;;;;;3.75;1.80;;;29.00;58.60;;;;;;21091016;28;20237;-67
2023/08/18 18:19:31;;;;;;;3.58;2.08;;;28.70;59.30;;;;;;21092175;28;20230;-71
2023/08/18 18:29:34;;;;;;;3.05;1.90;;;28.50;60.30;;;;;;21089531;28;20617;-71
2023/08/18 18:39:36;;;;;;;6.53;2.28;;;28.30;61.60;;;;;;21085666;28;20720;-71
2023/08/18 18:49:38;;;;;;;4.15;2.28;;;28.10;63.50;;;;;;21029457;28;20566;-70
2023/08/18 18:59:41;;;;;;;3.33;2.10;;;27.90;63.70;;;;;;20933927;28;20235;-69
2023/08/18 19:09:43;;;;;;;4.72;2.20;;;27.70;64.50;;;;;;20945968;28;20231;-69
2023/08/18 19:19:44;;;;;;;3.92;2.10;;;27.50;66.10;;;;;;21001477;28;20330;-68
2023/08/18 19:29:46;;;;;;;5.35;2.30;;;27.30;66.30;;;;;;21054338;28;20631;-67
2023/08/18 19:39:48;;;;;;;7.32;2.42;;;27.10;67.40;;;;;;21084354;28;20728;-69
2023/08/18 19:49:50;;;;;;;4.73;2.70;;;26.90;69.40;;;;;;21069999;28;20301;-71
2023/08/18 19:59:53;;;;;;;17.23;3.00;;;26.70;71.50;;;;;;21082494;28;20265;-71
2023/08/18 20:09:55;;;;;;;5.60;3.07;;;26.40;73.20;;;;;;21080782;28;20644;-67
2023/08/18 20:19:56;;;;;;;6.83;3.10;;;26.20;75.10;;;;;;21062044;28;20230;-67
2023/08/18 20:30:01;;;;;;;6.37;3.00;;;26.00;76.70;;;;;;21043938;28;20211;-66
2023/08/18 20:40:03;;;;;;;9.63;3.53;;;25.80;78.50;;;;;;20979755;28;20238;-63
2023/08/18 20:50:06;;;;;;;9.83;3.53;;;25.60;81.10;;;;;;20996152;28;20681;-75
2023/08/18 21:00:10;;;;;;;9.07;3.10;;;25.40;82.60;;;;;;20995288;28;20234;-70
2023/08/18 21:10:11;;;;;;;7.80;3.80;;;25.00;86.10;;;;;;20994143;28;20231;-74
2023/08/18 21:20:15;;;;;;;6.97;4.37;;;24.90;87.50;;;;;;20995419;28;20246;-68
2023/08/18 21:30:18;;;;;;;4.47;3.30;;;24.80;89.10;;;;;;20995079;28;20719;-63
2023/08/18 21:40:20;;;;;;;8.07;4.20;;;24.50;90.40;;;;;;20995010;28;20239;-74
2023/08/18 21:50:22;;;;;;;8.93;3.93;;;24.40;91.20;;;;;;20994223;28;20206;-72
2023/08/18 22:00:24;;;;;;;5.50;4.23;;;24.20;92.40;;;;;;20993796;28;20326;-67
2023/08/18 22:10:26;;;;;;;10.30;4.93;;;24.00;93.20;;;;;;20995919;28;20627;-70
2023/08/18 22:20:27;;;;;;;8.37;4.30;;;24.00;93.90;;;;;;21008350;28;20235;-64
2023/08/18 22:30:29;;;;;;;6.93;4.93;;;23.80;94.50;;;;;;21007816;28;20294;-64
2023/08/18 22:40:31;;;;;;;10.13;4.73;;;23.70;95.30;;;;;;21007598;28;20238;-63
2023/08/18 22:50:32;;;;;;;8.23;5.30;;;23.50;95.90;;;;;;21006278;28;20206;-63
2023/08/18 23:00:34;;;;;;;8.17;4.67;;;23.40;96.70;;;;;;21012219;28;20609;-63
2023/08/18 23:10:36;;;;;;;10.50;4.90;;;23.30;97.20;;;;;;21037671;28;20321;-64
2023/08/18 23:20:38;;;;;;;8.77;5.10;;;23.20;97.70;;;;;;21002232;28;20269;-62
2023/08/18 23:30:40;;;;;;;6.33;4.27;;;23.00;98.00;;;;;;21003181;28;20567;-65
2023/08/18 23:40:42;;;;;;;7.17;4.47;;;22.80;98.70;;;;;;21002911;28;20239;-62
2023/08/18 23:50:44;;;;;;;8.70;4.90;;;22.80;99.10;;;;;;21002196;28;20286;-63
